Time;durP1;ratioP1;P1;durP2;ratioP2;P2;SDS_P1;SDS_P2;PMS_P1;PMS_P2;Temp;Humidity;BMP_temperature;BMP_pressure;BME280_temperature;BME280_humidity;BME280_pressure;Samples;Min_cycle;Max_cycle;Signal;HPM_P1;HPM_P2
2023/08/15 00:00:31;;;;;;;5.13;1.80;;;;;;;;;;5049954;28;20056;-70
2023/08/15 00:02:57;;;;;;;5.53;2.20;;;;;;;;;;5050059;28;20043;-70
2023/08/15 00:05:23;;;;;;;5.95;2.13;;;;;;;;;;5048736;28;20079;-69
2023/08/15 00:07:49;;;;;;;5.85;2.40;;;;;;;;;;5049128;28;20091;-70
2023/08/15 00:10:15;;;;;;;6.80;2.10;;;;;;;;;;5049730;28;20033;-70
2023/08/15 00:12:41;;;;;;;5.18;2.25;;;;;;;;;;5049504;28;20032;-70
2023/08/15 00:15:07;;;;;;;6.95;2.65;;;;;;;;;;5049181;28;20033;-70
2023/08/15 00:17:33;;;;;;;4.90;2.00;;;;;;;;;;5049323;28;20100;-70
2023/08/15 00:19:59;;;;;;;4.85;2.10;;;;;;;;;;5049652;28;20108;-70
2023/08/15 00:22:25;;;;;;;6.45;2.10;;;;;;;;;;5049162;28;20057;-71
2023/08/15 00:24:51;;;;;;;5.68;2.20;;;;;;;;;;5049352;28;20487;-70
2023/08/15 00:27:18;;;;;;;6.25;2.50;;;;;;;;;;5049293;28;20104;-70
2023/08/15 00:29:44;;;;;;;5.25;2.15;;;;;;;;;;5049137;28;20060;-70
2023/08/15 00:32:10;;;;;;;6.85;2.35;;;;;;;;;;5048888;28;20404;-70
2023/08/15 00:34:36;;;;;;;8.45;2.65;;;;;;;;;;5031242;28;20360;-70
2023/08/15 00:37:02;;;;;;;5.97;2.45;;;;;;;;;;5048737;28;20025;-69
2023/08/15 00:39:28;;;;;;;5.82;2.20;;;;;;;;;;5049015;28;20056;-69
2023/08/15 00:41:54;;;;;;;8.20;2.45;;;;;;;;;;5048966;28;20103;-70
2023/08/15 00:44:20;;;;;;;6.25;2.38;;;;;;;;;;5048619;28;20093;-69
2023/08/15 00:46:46;;;;;;;7.72;2.35;;;;;;;;;;5048966;28;20462;-70
2023/08/15 00:49:12;;;;;;;6.22;2.60;;;;;;;;;;5048857;28;20035;-69
2023/08/15 00:51:39;;;;;;;6.72;2.40;;;;;;;;;;5049031;28;20024;-69
2023/08/15 00:54:06;;;;;;;6.00;2.95;;;;;;;;;;5048954;28;20060;-70
2023/08/15 00:56:32;;;;;;;6.03;2.63;;;;;;;;;;5048388;28;20061;-69
2023/08/15 00:58:58;;;;;;;5.68;2.88;;;;;;;;;;5048883;28;20053;-69
2023/08/15 01:01:24;;;;;;;7.32;2.80;;;;;;;;;;5048941;28;20036;-70
2023/08/15 01:03:51;;;;;;;11.32;3.40;;;;;;;;;;5048861;28;20037;-70
2023/08/15 01:06:17;;;;;;;7.28;2.72;;;;;;;;;;5048612;28;20040;-71
2023/08/15 01:08:44;;;;;;;6.18;3.00;;;;;;;;;;5049200;28;20017;-69
2023/08/15 01:11:10;;;;;;;7.13;2.45;;;;;;;;;;5048802;28;20060;-70
2023/08/15 01:13:42;;;;;;;5.57;2.85;;;;;;;;;;5048438;28;20033;-70
2023/08/15 01:16:12;;;;;;;7.22;2.92;;;;;;;;;;5051441;28;20123;-70
2023/08/15 01:18:42;;;;;;;6.03;2.40;;;;;;;;;;5053577;28;20033;-69
2023/08/15 01:21:08;;;;;;;6.38;2.58;;;;;;;;;;5052861;28;20028;-69
2023/08/15 01:23:37;;;;;;;5.40;2.58;;;;;;;;;;5052435;28;20063;-69
2023/08/15 01:26:03;;;;;;;7.97;2.90;;;;;;;;;;5052924;28;20051;-70
2023/08/15 01:28:29;;;;;;;6.25;2.80;;;;;;;;;;5052655;28;20024;-70
2023/08/15 01:31:24;;;;;;;8.43;3.05;;;;;;;;;;5052460;28;20061;-70
2023/08/15 01:33:50;;;;;;;5.32;3.22;;;;;;;;;;5031145;28;20041;-70
2023/08/15 01:36:19;;;;;;;6.10;2.65;;;;;;;;;;5052285;28;20037;-70
2023/08/15 01:38:46;;;;;;;4.90;2.38;;;;;;;;;;5052656;28;20063;-70
2023/08/15 01:41:18;;;;;;;5.20;2.22;;;;;;;;;;5052367;28;20037;-70
2023/08/15 01:43:45;;;;;;;6.13;2.97;;;;;;;;;;5052231;28;20665;-71
2023/08/15 01:46:12;;;;;;;4.80;2.67;;;;;;;;;;5052329;28;20558;-70
2023/08/15 01:48:47;;;;;;;11.13;2.97;;;;;;;;;;5052243;28;20026;-70
2023/08/15 01:51:13;;;;;;;5.68;2.65;;;;;;;;;;5052413;28;20433;-70
2023/08/15 01:53:39;;;;;;;6.10;2.45;;;;;;;;;;5051880;28;20483;-70
2023/08/15 01:56:06;;;;;;;7.80;2.63;;;;;;;;;;5052203;28;20550;-70
2023/08/15 01:58:32;;;;;;;5.97;3.22;;;;;;;;;;5052211;28;20029;-70
2023/08/15 02:00:58;;;;;;;6.70;2.70;;;;;;;;;;5052247;28;20024;-70
2023/08/15 02:03:25;;;;;;;7.18;2.78;;;;;;;;;;5052033;28;20356;-71
2023/08/15 02:05:51;;;;;;;5.07;2.60;;;;;;;;;;5051958;28;20025;-70
2023/08/15 02:08:17;;;;;;;5.28;3.00;;;;;;;;;;5051821;28;20038;-70
2023/08/15 02:10:43;;;;;;;7.68;2.80;;;;;;;;;;5052115;28;20025;-70
2023/08/15 02:13:09;;;;;;;5.35;2.85;;;;;;;;;;5051659;28;20082;-71
2023/08/15 02:15:35;;;;;;;5.07;2.63;;;;;;;;;;5051737;28;20430;-71
2023/08/15 02:18:02;;;;;;;7.95;2.50;;;;;;;;;;5051673;28;20029;-71
2023/08/15 02:20:28;;;;;;;10.48;3.00;;;;;;;;;;5051650;28;20546;-69
2023/08/15 02:22:55;;;;;;;6.95;2.97;;;;;;;;;;5051978;28;20037;-68
2023/08/15 02:25:21;;;;;;;7.85;3.00;;;;;;;;;;5051656;28;20051;-69
2023/08/15 02:27:47;;;;;;;9.60;2.97;;;;;;;;;;5050590;28;20051;-69
2023/08/15 02:30:13;;;;;;;5.65;2.50;;;;;;;;;;5033937;28;20479;-69
2023/08/15 02:32:39;;;;;;;4.78;2.35;;;;;;;;;;5051136;28;20043;-69
2023/08/15 02:35:05;;;;;;;11.32;3.00;;;;;;;;;;5051581;28;20029;-69
2023/08/15 02:37:31;;;;;;;5.65;2.88;;;;;;;;;;5051174;28;20029;-69
2023/08/15 02:39:58;;;;;;;4.40;2.67;;;;;;;;;;5051145;28;20036;-71
2023/08/15 02:42:24;;;;;;;6.63;2.83;;;;;;;;;;5051133;28;20025;-69
2023/08/15 02:44:50;;;;;;;9.35;2.70;;;;;;;;;;5050337;28;20060;-69
2023/08/15 02:47:16;;;;;;;5.88;2.58;;;;;;;;;;5033136;28;20028;-69
2023/08/15 02:49:42;;;;;;;5.80;2.70;;;;;;;;;;5050959;28;20036;-69
2023/08/15 02:52:08;;;;;;;9.23;3.17;;;;;;;;;;5050788;28;20033;-69
2023/08/15 02:54:34;;;;;;;6.97;3.85;;;;;;;;;;5051080;28;20036;-70
2023/08/15 02:57:00;;;;;;;6.78;2.90;;;;;;;;;;5050865;28;20033;-69
2023/08/15 02:59:26;;;;;;;5.95;3.00;;;;;;;;;;5050476;28;20078;-69
2023/08/15 03:01:52;;;;;;;6.43;2.83;;;;;;;;;;5050832;28;20375;-70
2023/08/15 03:04:18;;;;;;;10.73;3.35;;;;;;;;;;5050569;28;20059;-70
2023/08/15 03:06:44;;;;;;;6.78;2.58;;;;;;;;;;5050686;28;20029;-70
2023/08/15 03:09:10;;;;;;;7.00;2.63;;;;;;;;;;5050679;28;20037;-70
2023/08/15 03:11:36;;;;;;;8.13;2.67;;;;;;;;;;5050242;28;20079;-70
2023/08/15 03:14:03;;;;;;;8.60;2.83;;;;;;;;;;5050527;28;20028;-70
2023/08/15 03:16:29;;;;;;;6.07;2.90;;;;;;;;;;5050576;28;20021;-70
2023/08/15 03:18:55;;;;;;;6.97;3.10;;;;;;;;;;5050375;28;20028;-70
2023/08/15 03:21:21;;;;;;;6.88;3.00;;;;;;;;;;5031927;28;20029;-71
2023/08/15 03:23:47;;;;;;;5.68;2.78;;;;;;;;;;5050647;28;20029;-69
2023/08/15 03:26:13;;;;;;;7.63;2.97;;;;;;;;;;5050345;28;20070;-69
2023/08/15 03:28:39;;;;;;;6.10;2.65;;;;;;;;;;5050322;28;20384;-69
2023/08/15 03:31:05;;;;;;;9.32;3.25;;;;;;;;;;5049781;28;20040;-70
2023/08/15 03:33:31;;;;;;;8.25;3.17;;;;;;;;;;5050200;28;20025;-69
2023/08/15 03:35:57;;;;;;;5.20;2.25;;;;;;;;;;5050215;28;20107;-69
2023/08/15 03:38:23;;;;;;;7.40;3.10;;;;;;;;;;5049664;28;20120;-69
2023/08/15 03:41:01;;;;;;;9.00;2.63;;;;;;;;;;5049941;28;20306;-69
2023/08/15 03:43:27;;;;;;;6.28;2.83;;;;;;;;;;5050067;28;20138;-68
2023/08/15 03:45:53;;;;;;;8.48;2.75;;;;;;;;;;5031712;28;20102;-69
2023/08/15 03:48:19;;;;;;;5.53;2.65;;;;;;;;;;5049989;28;20467;-69
2023/08/15 03:50:45;;;;;;;7.57;2.95;;;;;;;;;;5050280;28;20087;-70
2023/08/15 03:53:11;;;;;;;6.13;2.80;;;;;;;;;;5049406;28;20099;-71
2023/08/15 03:55:37;;;;;;;7.85;2.72;;;;;;;;;;5050144;28;20500;-70
2023/08/15 03:58:03;;;;;;;5.88;2.60;;;;;;;;;;5049709;28;20483;-70
2023/08/15 04:00:29;;;;;;;8.48;2.95;;;;;;;;;;5049534;28;20037;-70
2023/08/15 04:02:55;;;;;;;7.57;2.63;;;;;;;;;;5050052;28;20082;-71
2023/08/15 04:05:21;;;;;;;5.78;2.20;;;;;;;;;;5050071;28;20055;-70
2023/08/15 04:07:47;;;;;;;6.85;2.50;;;;;;;;;;5050553;28;20523;-70
2023/08/15 04:10:13;;;;;;;5.82;2.63;;;;;;;;;;5032557;28;20116;-71
2023/08/15 04:12:40;;;;;;;10.73;2.33;;;;;;;;;;5050171;28;20095;-70
2023/08/15 04:15:06;;;;;;;7.93;2.53;;;;;;;;;;5049836;28;20041;-71
2023/08/15 04:17:32;;;;;;;5.57;2.35;;;;;;;;;;5049841;28;20029;-71
2023/08/15 04:19:58;;;;;;;5.72;2.08;;;;;;;;;;5050282;28;20067;-71
2023/08/15 04:22:24;;;;;;;7.20;2.45;;;;;;;;;;5049739;28;20063;-70
2023/08/15 04:24:50;;;;;;;7.00;2.42;;;;;;;;;;5048996;28;20132;-70
2023/08/15 04:27:16;;;;;;;7.50;2.20;;;;;;;;;;5049685;28;20025;-70
2023/08/15 04:29:43;;;;;;;7.03;2.55;;;;;;;;;;5049907;28;20478;-70
2023/08/15 04:32:09;;;;;;;6.50;2.28;;;;;;;;;;5049237;28;20100;-71
2023/08/15 04:34:35;;;;;;;7.28;2.63;;;;;;;;;;5048740;28;20482;-71
2023/08/15 04:37:01;;;;;;;7.47;2.40;;;;;;;;;;5049378;28;20059;-70
2023/08/15 04:39:27;;;;;;;7.68;2.70;;;;;;;;;;5049206;28;20406;-70
2023/08/15 04:41:53;;;;;;;7.55;2.60;;;;;;;;;;5048995;28;20467;-70
2023/08/15 04:44:19;;;;;;;9.95;2.50;;;;;;;;;;5048664;28;20045;-71
2023/08/15 04:46:45;;;;;;;6.55;2.20;;;;;;;;;;5049043;28;20033;-71
2023/08/15 04:49:11;;;;;;;6.63;2.28;;;;;;;;;;5049068;28;20029;-71
2023/08/15 04:51:37;;;;;;;7.88;2.33;;;;;;;;;;5048327;28;20032;-70
2023/08/15 04:54:03;;;;;;;4.75;1.90;;;;;;;;;;5049085;28;20406;-70
2023/08/15 04:56:29;;;;;;;9.23;2.65;;;;;;;;;;5049200;28;20031;-71
2023/08/15 04:58:55;;;;;;;8.20;2.45;;;;;;;;;;5048979;28;20107;-70
2023/08/15 05:01:22;;;;;;;12.18;2.50;;;;;;;;;;5048778;28;20588;-70
2023/08/15 05:03:48;;;;;;;15.30;3.28;;;;;;;;;;5048259;28;20130;-71
2023/08/15 05:06:14;;;;;;;11.48;2.70;;;;;;;;;;5048655;28;20060;-70
2023/08/15 05:08:40;;;;;;;6.93;2.67;;;;;;;;;;5030953;28;20525;-70
2023/08/15 05:11:06;;;;;;;9.77;2.78;;;;;;;;;;5048041;28;20033;-70
2023/08/15 05:13:32;;;;;;;9.13;2.42;;;;;;;;;;5048619;28;20033;-70
2023/08/15 05:15:58;;;;;;;12.77;3.17;;;;;;;;;;5048442;28;20552;-70
2023/08/15 05:18:24;;;;;;;8.23;2.70;;;;;;;;;;5048507;28;20032;-70
2023/08/15 05:20:50;;;;;;;8.27;2.72;;;;;;;;;;5048795;28;20056;-70
2023/08/15 05:23:16;;;;;;;7.78;2.60;;;;;;;;;;5048269;28;20079;-70
2023/08/15 05:25:43;;;;;;;10.48;2.63;;;;;;;;;;5048414;28;20017;-68
2023/08/15 05:28:09;;;;;;;4.88;2.05;;;;;;;;;;5048599;28;20033;-70
2023/08/15 05:30:35;;;;;;;5.43;2.10;;;;;;;;;;5048768;28;20375;-69
2023/08/15 05:33:02;;;;;;;7.43;2.50;;;;;;;;;;5048065;28;20027;-70
2023/08/15 05:35:28;;;;;;;7.65;2.38;;;;;;;;;;5048851;28;20574;-70
2023/08/15 05:37:54;;;;;;;9.50;2.55;;;;;;;;;;5048426;28;20025;-70
2023/08/15 05:40:21;;;;;;;8.60;2.50;;;;;;;;;;5048084;28;20453;-70
2023/08/15 05:42:48;;;;;;;8.05;2.70;;;;;;;;;;5048916;28;20099;-70
2023/08/15 05:45:14;;;;;;;8.55;2.95;;;;;;;;;;5048281;28;20053;-67
2023/08/15 05:47:40;;;;;;;10.70;3.00;;;;;;;;;;5048294;28;20486;-68
2023/08/15 05:50:06;;;;;;;11.35;2.50;;;;;;;;;;5030368;28;20162;-67
2023/08/15 05:52:33;;;;;;;10.25;2.85;;;;;;;;;;5048481;28;20395;-68
2023/08/15 05:54:59;;;;;;;14.05;2.90;;;;;;;;;;5047913;28;20055;-67
2023/08/15 05:57:25;;;;;;;9.18;2.72;;;;;;;;;;5048351;28;20071;-67
2023/08/15 05:59:51;;;;;;;9.88;3.25;;;;;;;;;;5048081;28;20040;-67
2023/08/15 06:02:18;;;;;;;10.55;2.95;;;;;;;;;;5049534;28;20376;-67
2023/08/15 06:04:44;;;;;;;13.40;2.63;;;;;;;;;;5051288;28;20052;-67
2023/08/15 06:07:12;;;;;;;8.23;2.80;;;;;;;;;;5051926;28;20442;-67
2023/08/15 06:09:38;;;;;;;7.93;2.20;;;;;;;;;;5051965;28;20028;-67
2023/08/15 06:12:04;;;;;;;6.45;2.30;;;;;;;;;;5051130;28;20033;-67
2023/08/15 06:14:30;;;;;;;10.27;2.95;;;;;;;;;;5051414;28;20032;-67
2023/08/15 06:16:56;;;;;;;9.73;4.18;;;;;;;;;;5051664;28;20065;-67
2023/08/15 06:19:23;;;;;;;13.70;3.00;;;;;;;;;;5051663;28;20061;-67
2023/08/15 06:21:49;;;;;;;9.18;3.33;;;;;;;;;;5051211;28;20029;-67
2023/08/15 06:24:15;;;;;;;8.80;2.60;;;;;;;;;;5051693;28;20116;-67
2023/08/15 06:26:41;;;;;;;12.23;3.42;;;;;;;;;;5051343;28;20025;-67
2023/08/15 06:29:07;;;;;;;12.13;3.35;;;;;;;;;;5051545;28;20484;-66
2023/08/15 06:31:33;;;;;;;8.45;3.00;;;;;;;;;;5051761;28;20029;-66
2023/08/15 06:34:00;;;;;;;10.10;4.03;;;;;;;;;;5051207;28;20032;-67
2023/08/15 06:36:27;;;;;;;9.68;2.97;;;;;;;;;;5051305;28;20028;-67
2023/08/15 06:38:53;;;;;;;9.82;3.15;;;;;;;;;;5051373;28;20025;-67
2023/08/15 06:41:19;;;;;;;5.55;2.90;;;;;;;;;;5051201;28;20025;-66
2023/08/15 06:43:46;;;;;;;10.65;3.63;;;;;;;;;;5050501;28;20087;-67
2023/08/15 06:46:12;;;;;;;14.30;3.25;;;;;;;;;;5051340;28;20029;-66
2023/08/15 06:48:38;;;;;;;11.23;3.50;;;;;;;;;;5051030;28;20025;-67
2023/08/15 06:51:04;;;;;;;8.40;2.97;;;;;;;;;;5051006;28;20067;-67
2023/08/15 06:53:33;;;;;;;10.77;3.03;;;;;;;;;;5050404;28;20478;-68
2023/08/15 06:55:59;;;;;;;10.45;3.63;;;;;;;;;;5050555;28;20479;-68
2023/08/15 06:58:26;;;;;;;9.65;3.47;;;;;;;;;;5050953;28;20029;-68
2023/08/15 07:00:52;;;;;;;8.73;2.53;;;;;;;;;;5050712;28;20398;-68
2023/08/15 07:03:19;;;;;;;10.43;2.85;;;;;;;;;;5050342;28;20396;-67
2023/08/15 07:05:45;;;;;;;9.50;2.85;;;;;;;;;;5050760;28;20104;-67
2023/08/15 07:08:13;;;;;;;8.75;2.97;;;;;;;;;;5050531;28;20032;-67
2023/08/15 07:10:39;;;;;;;10.07;3.40;;;;;;;;;;5050348;28;20052;-68
2023/08/15 07:13:05;;;;;;;8.85;2.97;;;;;;;;;;5050214;28;20529;-67
2023/08/15 07:15:31;;;;;;;9.27;3.30;;;;;;;;;;5050594;28;20029;-68
2023/08/15 07:17:57;;;;;;;9.13;2.88;;;;;;;;;;5050563;28;20655;-68
2023/08/15 07:20:24;;;;;;;9.73;3.42;;;;;;;;;;5050354;28;20057;-68
2023/08/15 07:22:50;;;;;;;11.23;3.50;;;;;;;;;;5050313;28;20040;-68
2023/08/15 07:25:16;;;;;;;9.65;3.72;;;;;;;;;;5049869;28;20028;-67
2023/08/15 07:27:42;;;;;;;11.00;3.13;;;;;;;;;;5050387;28;20029;-67
2023/08/15 07:30:12;;;;;;;11.00;3.13;;;;;;;;;;5050204;28;20049;-68
2023/08/15 07:32:38;;;;;;;9.88;3.30;;;;;;;;;;5050292;28;20440;-67
2023/08/15 07:35:10;;;;;;;11.85;3.35;;;;;;;;;;5049561;28;20047;-67
2023/08/15 07:37:36;;;;;;;9.70;2.90;;;;;;;;;;5049690;28;20118;-68
2023/08/15 07:40:05;;;;;;;7.95;3.35;;;;;;;;;;5050304;28;20102;-68
2023/08/15 07:42:32;;;;;;;11.70;3.47;;;;;;;;;;5050295;28;20037;-68
2023/08/15 07:44:58;;;;;;;12.48;2.80;;;;;;;;;;5049538;28;20044;-68
2023/08/15 07:47:24;;;;;;;7.20;2.72;;;;;;;;;;5049714;28;20063;-68
2023/08/15 07:50:11;;;;;;;10.45;2.72;;;;;;;;;;5050115;28;20029;-67
2023/08/15 07:52:39;;;;;;;9.82;2.70;;;;;;;;;;5050070;28;20032;-68
2023/08/15 07:55:06;;;;;;;8.38;3.00;;;;;;;;;;5049435;28;20033;-67
2023/08/15 07:57:33;;;;;;;9.02;2.65;;;;;;;;;;5050246;28;20052;-67
2023/08/15 07:59:59;;;;;;;8.00;2.50;;;;;;;;;;5049537;28;20078;-68
2023/08/15 08:02:25;;;;;;;7.18;2.15;;;;;;;;;;5049685;28;20086;-68
2023/08/15 08:04:51;;;;;;;8.70;2.75;;;;;;;;;;5031395;28;20460;-69
2023/08/15 08:07:17;;;;;;;7.78;2.30;;;;;;;;;;5049858;28;20394;-68
2023/08/15 08:09:43;;;;;;;9.57;2.67;;;;;;;;;;5049536;28;20017;-68
2023/08/15 08:12:10;;;;;;;7.90;2.58;;;;;;;;;;5049319;28;20109;-68
2023/08/15 08:14:36;;;;;;;10.93;3.28;;;;;;;;;;5049717;28;20021;-67
2023/08/15 08:17:02;;;;;;;7.72;2.78;;;;;;;;;;5048950;28;20029;-67
2023/08/15 08:19:28;;;;;;;8.93;2.42;;;;;;;;;;5049578;28;20102;-67
2023/08/15 08:21:54;;;;;;;10.18;2.58;;;;;;;;;;5049376;28;20442;-67
2023/08/15 08:24:20;;;;;;;7.65;2.78;;;;;;;;;;5048444;28;20111;-67
2023/08/15 08:26:46;;;;;;;9.48;3.08;;;;;;;;;;5048854;28;20021;-67
2023/08/15 08:29:12;;;;;;;9.25;2.33;;;;;;;;;;5049763;28;20083;-67
2023/08/15 08:31:39;;;;;;;7.80;2.83;;;;;;;;;;5049068;28;20103;-67
2023/08/15 08:34:13;;;;;;;10.70;3.33;;;;;;;;;;5049226;28;20112;-67
2023/08/15 08:36:39;;;;;;;8.43;2.55;;;;;;;;;;5031079;28;20372;-68
2023/08/15 08:39:07;;;;;;;7.47;2.22;;;;;;;;;;5049145;28;20032;-66
2023/08/15 08:41:33;;;;;;;8.98;2.67;;;;;;;;;;5049100;28;20079;-66
2023/08/15 08:44:01;;;;;;;8.35;1.98;;;;;;;;;;5048732;28;20052;-66
2023/08/15 08:46:29;;;;;;;7.35;2.50;;;;;;;;;;5049605;28;20606;-67
2023/08/15 08:48:57;;;;;;;7.53;2.47;;;;;;;;;;5048549;28;20402;-68
2023/08/15 08:51:24;;;;;;;6.43;2.13;;;;;;;;;;5048800;28;20025;-68
2023/08/15 08:53:50;;;;;;;8.98;3.08;;;;;;;;;;5049060;28;20511;-68
2023/08/15 08:56:18;;;;;;;7.28;1.90;;;;;;;;;;5048796;28;20053;-67
2023/08/15 08:58:48;;;;;;;9.55;2.50;;;;;;;;;;5048115;28;20517;-66
2023/08/15 09:01:14;;;;;;;9.75;2.72;;;;;;;;;;5048901;28;20087;-67
2023/08/15 09:03:40;;;;;;;7.57;2.20;;;;;;;;;;5048963;28;20150;-67
2023/08/15 09:06:07;;;;;;;8.13;2.03;;;;;;;;;;5048610;28;20065;-67
2023/08/15 09:08:33;;;;;;;7.45;2.10;;;;;;;;;;5048505;28;20024;-68
2023/08/15 09:10:59;;;;;;;7.13;2.30;;;;;;;;;;5048986;28;20036;-68
2023/08/15 09:13:25;;;;;;;7.68;2.42;;;;;;;;;;5048267;28;20020;-68
2023/08/15 09:15:56;;;;;;;8.25;3.03;;;;;;;;;;5049190;28;20029;-68
2023/08/15 09:18:22;;;;;;;7.10;2.00;;;;;;;;;;5048679;28;20083;-67
2023/08/15 09:20:49;;;;;;;11.10;3.05;;;;;;;;;;5048254;28;20033;-67
2023/08/15 09:23:16;;;;;;;8.07;2.25;;;;;;;;;;5049199;28;20025;-68
2023/08/15 09:25:42;;;;;;;8.05;2.13;;;;;;;;;;5048838;28;20470;-68
2023/08/15 09:28:08;;;;;;;8.05;2.10;;;;;;;;;;5049076;28;20071;-68
2023/08/15 09:30:35;;;;;;;9.45;2.42;;;;;;;;;;5048702;28;20037;-68
2023/08/15 09:33:02;;;;;;;8.20;2.55;;;;;;;;;;5048744;28;20029;-67
2023/08/15 09:35:31;;;;;;;7.03;2.25;;;;;;;;;;5048338;28;20059;-67
2023/08/15 09:37:57;;;;;;;6.55;1.80;;;;;;;;;;5052186;28;20429;-68
2023/08/15 09:40:23;;;;;;;6.90;1.92;;;;;;;;;;5052496;28;20036;-67
2023/08/15 09:42:50;;;;;;;5.38;2.03;;;;;;;;;;5052642;28;20040;-66
2023/08/15 09:45:16;;;;;;;7.68;1.90;;;;;;;;;;5051925;28;20060;-68
2023/08/15 09:47:43;;;;;;;9.25;2.53;;;;;;;;;;5052377;28;20156;-67
2023/08/15 09:50:10;;;;;;;8.10;1.92;;;;;;;;;;5052245;28;20036;-68
2023/08/15 09:52:38;;;;;;;6.00;1.77;;;;;;;;;;5052283;28;20036;-68
2023/08/15 09:55:06;;;;;;;9.50;2.08;;;;;;;;;;5051708;28;20079;-67
2023/08/15 09:57:32;;;;;;;8.07;2.50;;;;;;;;;;5052296;28;20050;-68
2023/08/15 09:59:58;;;;;;;7.22;2.08;;;;;;;;;;5052041;28;20029;-68
2023/08/15 10:02:25;;;;;;;5.95;1.98;;;;;;;;;;5051969;28;20032;-69
2023/08/15 10:05:02;;;;;;;10.27;2.40;;;;;;;;;;5051842;28;20048;-68
2023/08/15 10:07:32;;;;;;;5.70;1.85;;;;;;;;;;5051528;28;20025;-68
2023/08/15 10:09:59;;;;;;;7.68;1.88;;;;;;;;;;5051767;28;20025;-68
2023/08/15 10:12:26;;;;;;;6.22;1.85;;;;;;;;;;5051895;28;20072;-68
2023/08/15 10:14:53;;;;;;;7.13;2.28;;;;;;;;;;5033594;28;20079;-68
2023/08/15 10:17:20;;;;;;;7.82;2.22;;;;;;;;;;5051891;28;20035;-68
2023/08/15 10:19:46;;;;;;;6.18;1.95;;;;;;;;;;5051374;28;20498;-68
2023/08/15 10:22:16;;;;;;;6.78;2.60;;;;;;;;;;5051912;28;20025;-68
2023/08/15 10:24:42;;;;;;;8.10;2.10;;;;;;;;;;5051802;28;20118;-68
2023/08/15 10:27:10;;;;;;;6.22;2.60;;;;;;;;;;5051478;28;20150;-68
2023/08/15 10:29:55;;;;;;;7.05;2.33;;;;;;;;;;5051435;28;20028;-67
2023/08/15 10:32:25;;;;;;;7.07;2.28;;;;;;;;;;5051545;28;20734;-68
2023/08/15 10:34:54;;;;;;;4.75;2.17;;;;;;;;;;5051262;28;20033;-68
2023/08/15 10:37:31;;;;;;;6.93;2.03;;;;;;;;;;5033474;28;20236;-69
2023/08/15 10:40:08;;;;;;;6.32;2.38;;;;;;;;;;5051321;28;20137;-69
2023/08/15 10:43:13;;;;;;;8.30;2.80;;;;;;;;;;5051726;28;20489;-68
2023/08/15 10:45:43;;;;;;;6.53;2.15;;;;;;;;;;4950738;28;20055;-67
2023/08/15 10:48:10;;;;;;;6.45;2.28;;;;;;;;;;4950226;28;20125;-68
2023/08/15 10:50:37;;;;;;;7.38;2.83;;;;;;;;;;5001386;28;20105;-68
2023/08/15 10:53:03;;;;;;;9.55;2.83;;;;;;;;;;5050788;28;20084;-68
2023/08/15 10:55:29;;;;;;;6.38;2.20;;;;;;;;;;5051512;28;20029;-68
2023/08/15 10:57:56;;;;;;;9.75;2.97;;;;;;;;;;5051153;28;20033;-68
2023/08/15 11:00:22;;;;;;;8.23;3.05;;;;;;;;;;5050979;28;20032;-68
2023/08/15 11:02:49;;;;;;;11.55;3.13;;;;;;;;;;5050803;28;20031;-69
2023/08/15 11:05:15;;;;;;;8.85;3.35;;;;;;;;;;5032792;28;20069;-68
2023/08/15 11:07:42;;;;;;;10.55;3.13;;;;;;;;;;5050771;28;20032;-69
2023/08/15 11:10:08;;;;;;;11.65;3.08;;;;;;;;;;5051540;28;20033;-69
2023/08/15 11:12:35;;;;;;;10.57;3.45;;;;;;;;;;5050822;28;20096;-68
2023/08/15 11:15:02;;;;;;;8.68;2.92;;;;;;;;;;5051000;28;20403;-68
2023/08/15 11:17:28;;;;;;;11.55;3.00;;;;;;;;;;5051054;28;20033;-69
2023/08/15 11:19:54;;;;;;;10.18;3.88;;;;;;;;;;5050162;28;20044;-69
2023/08/15 11:22:20;;;;;;;12.45;3.42;;;;;;;;;;5050397;28;20483;-68
2023/08/15 11:24:50;;;;;;;12.25;3.60;;;;;;;;;;5050442;28;20068;-69
2023/08/15 11:27:16;;;;;;;12.18;3.50;;;;;;;;;;5050452;28;20029;-68
2023/08/15 11:29:43;;;;;;;13.93;3.20;;;;;;;;;;5050099;28;20437;-69
2023/08/15 11:32:09;;;;;;;12.95;3.38;;;;;;;;;;5050105;28;20387;-68
2023/08/15 11:34:41;;;;;;;9.50;3.00;;;;;;;;;;5050052;28;20074;-68
2023/08/15 11:37:09;;;;;;;11.88;3.70;;;;;;;;;;5050026;28;20028;-69
2023/08/15 11:39:35;;;;;;;11.68;3.60;;;;;;;;;;5050066;28;20121;-68
2023/08/15 11:42:01;;;;;;;12.50;4.00;;;;;;;;;;5049760;28;20104;-69
2023/08/15 11:44:27;;;;;;;11.55;3.97;;;;;;;;;;5050060;28;20060;-68
2023/08/15 11:46:53;;;;;;;13.02;3.40;;;;;;;;;;5049900;28;20565;-69
2023/08/15 11:49:21;;;;;;;9.02;3.53;;;;;;;;;;5050021;28;20024;-70
2023/08/15 11:51:47;;;;;;;10.43;3.58;;;;;;;;;;5049589;28;20406;-68
2023/08/15 11:54:13;;;;;;;11.93;4.28;;;;;;;;;;5049919;28;20119;-67
2023/08/15 11:56:49;;;;;;;11.82;3.60;;;;;;;;;;5050498;28;20475;-68
2023/08/15 11:59:19;;;;;;;9.77;3.67;;;;;;;;;;5049091;28;20159;-67
2023/08/15 12:01:45;;;;;;;11.85;3.72;;;;;;;;;;5049509;28;20498;-68
2023/08/15 12:04:16;;;;;;;11.23;3.65;;;;;;;;;;5049700;28;20033;-68
2023/08/15 12:06:42;;;;;;;9.32;3.90;;;;;;;;;;5031494;28;20055;-68
2023/08/15 12:09:08;;;;;;;8.25;3.55;;;;;;;;;;5049670;28;20475;-70
2023/08/15 12:11:34;;;;;;;10.75;3.90;;;;;;;;;;5049926;28;20379;-69
2023/08/15 12:14:02;;;;;;;11.07;3.75;;;;;;;;;;5049451;28;20025;-69
2023/08/15 12:16:28;;;;;;;10.02;3.47;;;;;;;;;;5049237;28;20031;-69
2023/08/15 12:18:54;;;;;;;9.40;3.58;;;;;;;;;;5049601;28;20029;-69
2023/08/15 12:21:20;;;;;;;9.32;3.17;;;;;;;;;;5049446;28;20021;-69
2023/08/15 12:23:46;;;;;;;8.48;3.92;;;;;;;;;;5049139;28;20029;-69
2023/08/15 12:26:12;;;;;;;9.15;3.33;;;;;;;;;;5048755;28;20025;-69
2023/08/15 12:28:38;;;;;;;12.20;3.88;;;;;;;;;;5049420;28;20223;-68
2023/08/15 12:31:04;;;;;;;9.50;4.07;;;;;;;;;;5049008;28;20395;-68
2023/08/15 12:33:33;;;;;;;7.63;3.28;;;;;;;;;;5049706;28;20035;-69
2023/08/15 12:35:59;;;;;;;7.00;3.33;;;;;;;;;;5049019;28;20047;-68
2023/08/15 12:38:25;;;;;;;9.80;3.22;;;;;;;;;;5049106;28;20029;-67
2023/08/15 12:40:52;;;;;;;7.65;2.80;;;;;;;;;;5048917;28;20075;-67
2023/08/15 12:43:18;;;;;;;5.78;3.25;;;;;;;;;;5048938;28;20052;-67
2023/08/15 12:45:44;;;;;;;6.95;3.13;;;;;;;;;;5048521;28;20104;-68
2023/08/15 12:48:10;;;;;;;6.63;2.70;;;;;;;;;;5049051;28;20029;-67
2023/08/15 12:50:36;;;;;;;7.72;3.00;;;;;;;;;;5031968;28;20036;-67
2023/08/15 12:53:02;;;;;;;8.70;3.35;;;;;;;;;;5049606;28;20495;-68
2023/08/15 12:55:28;;;;;;;9.10;2.95;;;;;;;;;;5049213;28;20063;-69
2023/08/15 12:57:54;;;;;;;8.98;3.40;;;;;;;;;;5049187;28;20051;-69
2023/08/15 13:00:21;;;;;;;9.43;3.10;;;;;;;;;;5049527;28;20078;-68
2023/08/15 13:02:47;;;;;;;10.57;3.50;;;;;;;;;;5049053;28;20029;-68
2023/08/15 13:05:13;;;;;;;11.27;2.95;;;;;;;;;;5048797;28;20052;-69
2023/08/15 13:07:39;;;;;;;10.43;2.92;;;;;;;;;;5049250;28;20391;-69
2023/08/15 13:10:06;;;;;;;8.60;2.90;;;;;;;;;;5049431;28;20025;-68
2023/08/15 13:12:32;;;;;;;7.20;2.65;;;;;;;;;;5052187;28;20475;-69
2023/08/15 13:14:58;;;;;;;7.32;2.15;;;;;;;;;;5053096;28;20029;-69
2023/08/15 13:17:24;;;;;;;8.35;2.33;;;;;;;;;;5052929;28;20071;-69
2023/08/15 13:19:50;;;;;;;7.50;2.45;;;;;;;;;;5053188;28;20479;-69
2023/08/15 13:22:18;;;;;;;9.02;2.55;;;;;;;;;;5052625;28;20021;-69
2023/08/15 13:24:44;;;;;;;6.93;2.78;;;;;;;;;;5053050;28;20041;-69
2023/08/15 13:27:11;;;;;;;7.38;2.60;;;;;;;;;;5034910;28;20510;-69
2023/08/15 13:29:38;;;;;;;5.78;2.38;;;;;;;;;;5052472;28;20029;-69
2023/08/15 13:32:05;;;;;;;7.75;2.50;;;;;;;;;;5051696;28;20025;-68
2023/08/15 13:34:31;;;;;;;8.30;2.58;;;;;;;;;;5053032;28;20128;-69
2023/08/15 13:36:57;;;;;;;10.07;2.95;;;;;;;;;;5052514;28;20040;-69
2023/08/15 13:39:23;;;;;;;10.07;2.67;;;;;;;;;;5050469;28;20458;-70
2023/08/15 13:41:49;;;;;;;9.10;2.83;;;;;;;;;;5050565;28;20029;-69
2023/08/15 13:44:15;;;;;;;10.05;2.83;;;;;;;;;;5050877;28;20098;-68
2023/08/15 13:46:42;;;;;;;12.00;2.88;;;;;;;;;;5050642;28;20029;-67
2023/08/15 13:49:08;;;;;;;9.35;2.80;;;;;;;;;;5050764;28;20051;-66
2023/08/15 13:51:34;;;;;;;11.95;2.95;;;;;;;;;;5050525;28;20047;-67
2023/08/15 13:54:01;;;;;;;8.80;3.47;;;;;;;;;;5051392;28;20060;-67
2023/08/15 13:56:28;;;;;;;8.48;3.70;;;;;;;;;;5052149;28;20025;-67
2023/08/15 13:58:54;;;;;;;10.65;3.45;;;;;;;;;;5051990;28;20029;-65
2023/08/15 14:01:20;;;;;;;11.90;4.28;;;;;;;;;;5051861;28;20025;-65
2023/08/15 14:03:46;;;;;;;10.13;3.30;;;;;;;;;;5052197;28;20025;-64
2023/08/15 14:06:12;;;;;;;7.28;2.38;;;;;;;;;;5034357;28;20028;-69
2023/08/15 14:08:39;;;;;;;8.07;3.03;;;;;;;;;;5052061;28;20021;-70
2023/08/15 14:11:05;;;;;;;6.60;2.65;;;;;;;;;;5051639;28;20458;-71
2023/08/15 14:13:33;;;;;;;6.22;2.30;;;;;;;;;;5052088;28;20529;-71
2023/08/15 14:15:59;;;;;;;5.05;2.47;;;;;;;;;;5051914;28;20390;-72
2023/08/15 14:18:25;;;;;;;9.32;2.58;;;;;;;;;;5051849;28;20383;-72
2023/08/15 14:20:51;;;;;;;10.00;3.17;;;;;;;;;;5051969;28;20132;-72
2023/08/15 14:23:17;;;;;;;6.38;2.83;;;;;;;;;;5050961;28;20061;-73
2023/08/15 14:25:43;;;;;;;7.68;2.67;;;;;;;;;;5051691;28;20060;-75
2023/08/15 14:28:09;;;;;;;7.72;2.42;;;;;;;;;;5052191;28;20032;-74
2023/08/15 14:30:35;;;;;;;7.18;2.58;;;;;;;;;;5051326;28;20024;-74
2023/08/15 14:33:02;;;;;;;8.10;2.70;;;;;;;;;;5051140;28;20029;-74
2023/08/15 14:35:28;;;;;;;7.82;2.17;;;;;;;;;;5051768;28;20086;-74
2023/08/15 14:37:54;;;;;;;5.85;2.30;;;;;;;;;;5033315;28;20033;-75